Sst Orleans — CFN5087 — position and weather

sailwx.info

Track history (hours):
 
Tides and Currents Weather Stations Pressure Air Temp Water Temp Dewpoint Dewpoint Depression Visibility Wind Speed Wind Dir Waves Ship Positions

Sst Orleans

Last reported at 2017-May-23 17:00 UTC. Time now 2017-May-23 17:06 UTC.
Position N 49°17' W 123°04'.

Length 29 m; draft 5.1 m.

Type: . MMSI: 316012721.

Date/timePositionNaut miles runAvg speedWind from/ knotsBaromVisibWave heightAir tempDewpointWater temp
2017-May-23 17:00N 49°17' W 123°04'0 0.0
2017-May-23 16:30N 49°17' W 123°04'0 0.0
2017-May-23 16:00N 49°17' W 123°04'0 0.0
2017-May-23 15:30N 49°17' W 123°04'0 0.0
2017-May-23 15:00N 49°17' W 123°04'0 0.0
2017-May-23 14:30N 49°17' W 123°04'0 0.0
2017-May-23 13:30N 49°17' W 123°04'0 0.0
2017-May-23 13:00N 49°17' W 123°04'0 0.0
2017-May-23 12:30N 49°17' W 123°04'0 0.0
2017-May-23 12:00N 49°17' W 123°04'0 0.0
2017-May-23 11:30N 49°17' W 123°04'0 0.0
2017-May-23 11:00N 49°17' W 123°04'0 0.0
2017-May-23 10:30N 49°17' W 123°04'0 0.0
2017-May-23 10:00N 49°17' W 123°04'0 0.0
2017-May-23 09:30N 49°17' W 123°04'2 3.7
2017-May-23 09:01N 49°18' W 123°06'611.9
2017-May-23 08:30N 49°18' W 123°15'611.8
2017-May-23 08:00N 49°13' W 123°18'712.2
2017-May-23 07:28N 49°06' W 123°21'510.8
2017-May-23 07:00N 49°02' W 123°17'612.1
2017-May-23 06:30N 48°58' W 123°10'612.4
2017-May-23 05:59N 48°53' W 123°04'510.9
2017-May-23 05:30N 48°48' W 122°60'612.1
2017-May-23 05:01N 48°44' W 123°07'612.0
2017-May-23 04:30N 48°42' W 123°15'612.6
2017-May-23 04:00N 48°35' W 123°13'611.3
2017-May-23 03:30N 48°30' W 123°11'510.7
2017-May-23 03:00N 48°24' W 123°11'612.0
2017-May-23 02:30N 48°22' W 123°20'611.6
2017-May-23 02:00N 48°19' W 123°27'4 8.6
2017-May-23 01:30N 48°23' W 123°24'510.2
2017-May-23 01:01N 48°24' W 123°16'4 8.7
2017-May-23 00:31N 48°27' W 123°12'510.6
2017-May-23 00:01N 48°32' W 123°13'510.5
2017-May-22 23:30N 48°37' W 123°14'510.0
2017-May-22 23:00N 48°43' W 123°14'510.8
2017-May-22 22:30N 48°45' W 123°07'610.5
2017-May-22 21:59N 48°48' W 123°00'4 9.0
2017-May-22 21:29N 48°51' W 123°05'713.7
2017-May-22 21:00N 48°56' W 123°12'713.1
2017-May-22 20:29N 49°01' W 123°19'612.0
2017-May-22 19:59N 49°06' W 123°23'612.3
2017-May-22 19:30N 49°12' W 123°22'612.4
2017-May-22 19:00N 49°18' W 123°18'5 9.8
2017-May-22 18:30N 49°19' W 123°11'3 6.5
2017-May-22 18:01N 49°18' W 123°06'3 6.2
2017-May-22 17:30N 49°18' W 123°01'2 4.7
2017-May-22 17:00N 49°18' W 122°58'2 4.2
2017-May-22 16:30N 49°18' W 122°54'0 0.6
2017-May-22 16:00N 49°17' W 122°54'4 9.0
2017-May-22 15:30N 49°18' W 123°01'2 3.8
2017-May-22 15:00N 49°17' W 123°04'0 0.0
2017-May-22 14:01N 49°17' W 123°04'0 0.0
2017-May-22 13:31N 49°17' W 123°04'0 0.0
2017-May-22 13:00N 49°17' W 123°04'0 0.0
2017-May-22 12:30N 49°17' W 123°04'0 0.0
2017-May-22 12:01N 49°17' W 123°04'0 0.0
2017-May-22 11:31N 49°17' W 123°04'0 0.0
2017-May-22 11:00N 49°17' W 123°04'0 0.0
2017-May-22 10:30N 49°17' W 123°04'0 0.0
2017-May-22 10:00N 49°17' W 123°04'0 0.0
2017-May-22 09:30N 49°17' W 123°04'0 0.0
2017-May-22 09:01N 49°17' W 123°04'0 0.0
2017-May-22 08:31N 49°17' W 123°04'0 0.0
2017-May-22 08:01N 49°17' W 123°04'0 0.0
2017-May-22 07:31N 49°17' W 123°04'0 0.0
2017-May-22 07:00N 49°17' W 123°04'0 0.0
2017-May-22 06:30N 49°17' W 123°04'0 0.0
2017-May-22 06:00N 49°17' W 123°04'0 0.0
2017-May-22 05:30N 49°17' W 123°04'0 0.0
2017-May-22 05:01N 49°17' W 123°04'0 0.0
2017-May-22 04:31N 49°17' W 123°04'0 0.0
2017-May-22 04:01N 49°17' W 123°04'0 0.0
2017-May-22 03:31N 49°17' W 123°04'0 0.0
2017-May-22 03:00N 49°17' W 123°04'0 0.0
2017-May-22 02:31N 49°17' W 123°04'0 0.0
2017-May-22 02:00N 49°17' W 123°04'0 0.0
2017-May-22 01:31N 49°17' W 123°04'0 0.0
2017-May-22 01:00N 49°17' W 123°04'0 0.0
2017-May-22 00:30N 49°17' W 123°04'0 0.0
2017-May-22 00:00N 49°17' W 123°04'0 0.0
2017-May-21 23:31N 49°17' W 123°04'0 0.0
2017-May-21 23:00N 49°17' W 123°04'0 0.0
2017-May-21 22:30N 49°17' W 123°04'0 0.0
2017-May-21 22:00N 49°17' W 123°04'0 0.0
2017-May-21 21:31N 49°17' W 123°04'0 0.0
2017-May-21 21:01N 49°17' W 123°04'0 0.0
2017-May-21 20:30N 49°17' W 123°04'0 0.0
2017-May-21 20:00N 49°17' W 123°04'0 0.0
2017-May-21 19:31N 49°17' W 123°04'0 0.0
2017-May-21 19:01N 49°17' W 123°04'0 0.0
2017-May-21 18:30N 49°17' W 123°04'0 0.0
2017-May-21 18:00N 49°17' W 123°04'0 0.0
2017-May-21 17:30N 49°17' W 123°04'0 0.0
2017-May-21 17:00N 49°17' W 123°04'0 0.0
2017-May-21 16:31N 49°17' W 123°04'0 0.0
2017-May-21 16:01N 49°17' W 123°04'0 0.0
2017-May-21 15:31N 49°17' W 123°04'0 0.0
2017-May-21 15:00N 49°17' W 123°04'0 0.0
2017-May-21 14:31N 49°17' W 123°04'0 0.0
2017-May-21 13:30N 49°17' W 123°04'0 0.0
2017-May-21 13:00N 49°17' W 123°04'0 0.0
2017-May-21 12:30N 49°17' W 123°04'0 0.0
2017-May-21 12:00N 49°17' W 123°04'0 0.0
2017-May-21 11:30N 49°17' W 123°04'0 0.0
2017-May-21 11:01N 49°17' W 123°04'0 0.0
2017-May-21 10:30N 49°17' W 123°04'0 0.0
2017-May-21 10:00N 49°17' W 123°04'0 0.0
2017-May-21 09:31N 49°17' W 123°04'0 0.0
2017-May-21 09:00N 49°17' W 123°04'0 0.0
2017-May-21 08:31N 49°17' W 123°04'0 0.0
2017-May-21 08:00N 49°17' W 123°04'0 0.0
2017-May-21 07:31N 49°17' W 123°04'0 0.0
2017-May-21 07:01N 49°17' W 123°04'0 0.0
2017-May-21 06:31N 49°17' W 123°04'0 0.0
2017-May-21 06:00N 49°17' W 123°04'0 0.0
2017-May-21 05:31N 49°17' W 123°04'0 0.0
2017-May-21 05:00N 49°17' W 123°04'1 1.5
2017-May-21 04:31N 49°18' W 123°03'0 0.2
2017-May-21 04:01N 49°18' W 123°03'0 0.0
2017-May-21 03:30N 49°18' W 123°03'0 0.0
2017-May-21 03:00N 49°18' W 123°03'1 1.7
2017-May-21 02:30N 49°17' W 123°04'0 0.0
2017-May-21 02:00N 49°17' W 123°04'0 0.0
2017-May-21 01:30N 49°17' W 123°04'0 0.0
2017-May-21 01:00N 49°17' W 123°04'0 0.0
2017-May-21 00:30N 49°17' W 123°04'0 0.0
2017-May-21 00:01N 49°17' W 123°04'2 3.1
2017-May-20 23:31N 49°18' W 123°06'1 2.5
2017-May-20 23:00N 49°19' W 123°08'3 5.6
2017-May-20 22:30N 49°17' W 123°04'0 0.0
2017-May-20 22:00N 49°17' W 123°04'0 0.0
2017-May-20 21:30N 49°17' W 123°04'1 2.8
2017-May-20 21:01N 49°17' W 123°06'0 0.4
2017-May-20 20:31N 49°18' W 123°06'1 1.1
2017-May-20 20:01N 49°18' W 123°06'2 3.1
2017-May-20 19:31N 49°17' W 123°04'0 0.0
2017-May-20 19:00N 49°17' W 123°04'0 0.0
2017-May-20 18:30N 49°17' W 123°04'0 0.0
2017-May-20 18:01N 49°17' W 123°04'0 0.0
2017-May-20 17:31N 49°17' W 123°04'0 0.0
2017-May-20 17:01N 49°17' W 123°04'0 0.0
2017-May-20 16:31N 49°17' W 123°04'0 0.0
2017-May-20 16:00N 49°17' W 123°04'0 0.0
2017-May-20 15:30N 49°17' W 123°04'4 8.1
2017-May-20 15:00N 49°18' W 122°57'2 4.7
2017-May-20 14:31N 49°17' W 122°54'0 0.4
2017-May-20 13:30N 49°17' W 122°55'2 3.0
2017-May-20 13:00N 49°18' W 122°57'2 3.1
2017-May-20 12:30N 49°18' W 122°59'3 5.9
2017-May-20 12:01N 49°17' W 123°04'0 0.0
2017-May-20 11:30N 49°17' W 123°04'0 0.0
2017-May-20 11:00N 49°17' W 123°04'0 0.0
2017-May-20 10:31N 49°17' W 123°04'0 0.0
2017-May-20 10:00N 49°17' W 123°04'0 0.0
2017-May-20 09:31N 49°17' W 123°04'0 0.0
2017-May-20 09:00N 49°17' W 123°04'0 0.0
2017-May-20 08:30N 49°17' W 123°04'0 0.0
2017-May-20 08:01N 49°17' W 123°04'0 0.0
2017-May-20 07:31N 49°17' W 123°04'0 0.0
2017-May-20 07:00N 49°17' W 123°04'0 0.0
2017-May-20 06:31N 49°17' W 123°04'0 0.0
2017-May-20 06:01N 49°17' W 123°04'0 0.0
2017-May-20 05:30N 49°17' W 123°04'0 0.0
2017-May-20 05:01N 49°17' W 123°04'0 0.0
2017-May-20 04:31N 49°17' W 123°04'0 0.0
2017-May-20 04:00N 49°17' W 123°04'0 0.0
2017-May-20 03:31N 49°17' W 123°04'0 0.0
2017-May-20 03:00N 49°17' W 123°04'0 0.0
2017-May-20 02:31N 49°17' W 123°04'0 0.0
2017-May-20 02:01N 49°17' W 123°04'0 0.0
2017-May-20 01:30N 49°17' W 123°04'0 0.0
2017-May-20 01:00N 49°17' W 123°04'0 0.0
2017-May-20 00:31N 49°17' W 123°04'0 0.0
2017-May-20 00:00N 49°17' W 123°04'0 0.0
2017-May-19 23:31N 49°17' W 123°04'0 0.0
2017-May-19 23:00N 49°17' W 123°04'0 0.0
2017-May-19 22:30N 49°17' W 123°04'0 0.0
2017-May-19 22:01N 49°17' W 123°04'0 0.0
2017-May-19 21:30N 49°17' W 123°04'0 0.0
2017-May-19 21:00N 49°17' W 123°04'0 0.0
2017-May-19 20:30N 49°17' W 123°04'0 0.0
2017-May-19 20:00N 49°17' W 123°04'0 0.0
2017-May-19 19:31N 49°17' W 123°04'0 0.0
2017-May-19 19:01N 49°17' W 123°04'0 0.0
2017-May-19 18:31N 49°17' W 123°04'0 0.0
2017-May-19 18:01N 49°17' W 123°04'0 0.0
2017-May-19 17:30N 49°17' W 123°04'1 1.7
2017-May-19 17:00N 49°18' W 123°04'0 0.2
2017-May-19 16:30N 49°18' W 123°04'1 1.1
2017-May-19 16:01N 49°18' W 123°05'0 0.3
2017-May-19 15:30N 49°18' W 123°05'0 0.9
2017-May-19 15:00N 49°18' W 123°06'2 1.5
2017-May-19 14:01N 49°17' W 123°04'0 0.0
2017-May-19 13:30N 49°17' W 123°04'0 0.0
2017-May-19 13:01N 49°17' W 123°04'0 0.0
2017-May-19 12:30N 49°17' W 123°04'0 0.0
2017-May-19 12:01N 49°17' W 123°04'0 0.0
2017-May-19 11:30N 49°17' W 123°04'0 0.0
2017-May-19 11:00N 49°17' W 123°04'0 0.0
2017-May-19 10:31N 49°17' W 123°04'0 0.0
2017-May-19 10:01N 49°17' W 123°04'0 0.0
2017-May-19 09:30N 49°17' W 123°04'0 0.0
2017-May-19 09:01N 49°17' W 123°04'0 0.0
2017-May-19 08:31N 49°17' W 123°04'0 0.0
2017-May-19 08:01N 49°17' W 123°04'0 0.0
2017-May-19 07:31N 49°17' W 123°04'0 0.0
2017-May-19 07:00N 49°17' W 123°04'0 0.0
2017-May-19 06:31N 49°17' W 123°04'1 1.6
2017-May-19 06:00N 49°18' W 123°04'1 1.6
2017-May-19 05:31N 49°17' W 123°04'0 0.0
2017-May-19 05:00N 49°17' W 123°04'0 0.0
2017-May-19 04:31N 49°17' W 123°04'0 0.0
2017-May-19 04:01N 49°17' W 123°04'0 0.0
2017-May-19 03:31N 49°17' W 123°04'0 0.0
2017-May-19 03:01N 49°17' W 123°04'0 0.0
2017-May-19 02:30N 49°17' W 123°04'0 0.0
2017-May-19 02:00N 49°17' W 123°04'0 0.0
2017-May-19 01:30N 49°17' W 123°04'0 0.0
2017-May-19 01:00N 49°17' W 123°04'0 0.0
2017-May-19 00:30N 49°17' W 123°04'2 4.3
2017-May-19 00:01N 49°18' W 123°07'0 0.0
2017-May-18 23:30N 49°18' W 123°07'1 1.3
2017-May-18 23:00N 49°19' W 123°08'0 0.0
2017-May-18 22:30N 49°19' W 123°08'1 1.3
2017-May-18 22:01N 49°18' W 123°06'2 4.2
2017-May-18 21:30N 49°17' W 123°04'0 0.0
2017-May-18 21:00N 49°17' W 123°04'0 0.0
2017-May-18 20:30N 49°17' W 123°04'0 0.0
2017-May-18 20:01N 49°17' W 123°04'0 0.0
2017-May-18 19:30N 49°17' W 123°04'0 0.0
2017-May-18 19:01N 49°17' W 123°04'0 0.0
2017-May-18 18:30N 49°17' W 123°04'0 0.0
2017-May-18 18:01N 49°17' W 123°04'0 0.0
2017-May-18 17:30N 49°17' W 123°04'0 0.0
2017-May-18 17:00N 49°17' W 123°04'0 0.0
2017-May-18 16:30N 49°17' W 123°04'0 0.0
2017-May-18 16:01N 49°17' W 123°04'0 0.0
2017-May-18 15:30N 49°17' W 123°04'0 0.0
2017-May-18 15:01N 49°17' W 123°04'0 0.0
2017-May-18 14:30N 49°17' W 123°04'0 0.0
2017-May-18 13:31N 49°17' W 123°04'2 4.9
2017-May-18 13:00N 49°19' W 123°07'0 0.1
2017-May-18 12:30N 49°19' W 123°07'1 1.9
2017-May-18 12:00N 49°19' W 123°08'3 7.1
2017-May-18 11:31N 49°17' W 123°04'0 0.0
2017-May-18 11:00N 49°17' W 123°04'0 0.0
2017-May-18 10:31N 49°17' W 123°04'0 0.0
2017-May-18 10:00N 49°17' W 123°04'0 0.0
2017-May-18 09:30N 49°17' W 123°04'0 0.0
2017-May-18 09:00N 49°17' W 123°04'0 0.0
2017-May-18 08:31N 49°17' W 123°04'0 0.0
2017-May-18 08:00N 49°17' W 123°04'0 0.0
2017-May-18 07:31N 49°17' W 123°04'0 0.0
2017-May-18 07:00N 49°17' W 123°04'0 0.0
2017-May-18 06:31N 49°17' W 123°04'0 0.0
2017-May-18 06:00N 49°17' W 123°04'0 0.0
2017-May-18 05:31N 49°17' W 123°04'0 0.0
2017-May-18 05:00N 49°17' W 123°04'0 0.0
2017-May-18 04:31N 49°17' W 123°04'0 0.0
2017-May-18 04:01N 49°17' W 123°04'0 0.0
2017-May-18 03:30N 49°17' W 123°04'2 4.7
2017-May-18 03:00N 49°17' W 123°07'0 0.0
2017-May-18 02:31N 49°17' W 123°07'0 0.0
2017-May-18 02:00N 49°17' W 123°07'0 0.0
2017-May-18 01:30N 49°17' W 123°07'0 0.0
2017-May-18 01:00N 49°17' W 123°07'0 0.0
2017-May-18 00:31N 49°17' W 123°07'0 0.0
2017-May-18 00:01N 49°17' W 123°07'0 0.0
2017-May-17 23:31N 49°17' W 123°07'0 0.0
2017-May-17 23:01N 49°17' W 123°07'0 0.0
2017-May-17 22:31N 49°17' W 123°07'0 0.0
2017-May-17 22:00N 49°17' W 123°07'0 0.0
2017-May-17 21:30N 49°17' W 123°07'0 0.0
2017-May-17 21:00N 49°17' W 123°07'0 0.0
2017-May-17 20:31N 49°17' W 123°07'0 0.0
2017-May-17 20:00N 49°17' W 123°07'0 0.0
2017-May-17 19:30N 49°17' W 123°07'0 0.0
2017-May-17 19:00N 49°17' W 123°07'1 1.2
2017-May-17 18:31N 49°17' W 123°06'2 3.5
2017-May-17 18:00N 49°17' W 123°04'0 0.0
2017-May-17 17:31N 49°17' W 123°04'0 0.0
2017-May-17 17:00N 49°17' W 123°04'0 0.9
2017-May-17 16:30N 49°18' W 123°04'2 3.9
2017-May-17 16:00N 49°18' W 123°07'0 0.2
2017-May-17 15:30N 49°18' W 123°07'1 2.7
2017-May-17 15:00N 49°18' W 123°05'2 1.9
2017-May-17 14:01N 49°18' W 123°02'1 2.0
2017-May-17 13:30N 49°17' W 123°04'0 0.0
2017-May-17 13:00N 49°17' W 123°04'0 0.0
2017-May-17 12:30N 49°17' W 123°04'0 0.0
2017-May-17 12:00N 49°17' W 123°04'0 0.0
2017-May-17 11:30N 49°17' W 123°04'0 0.0
2017-May-17 11:00N 49°17' W 123°04'0 0.0
2017-May-17 10:30N 49°17' W 123°04'0 0.0
2017-May-17 10:00N 49°17' W 123°04'0 0.0
2017-May-17 09:30N 49°17' W 123°04'0 0.0
2017-May-17 09:00N 49°17' W 123°04'0 0.0
2017-May-17 08:30N 49°17' W 123°04'0 0.0
2017-May-17 08:01N 49°17' W 123°04'0 0.0
2017-May-17 07:30N 49°17' W 123°04'0 0.0
2017-May-17 07:00N 49°17' W 123°04'0 0.0
2017-May-17 06:30N 49°17' W 123°04'0 0.0
2017-May-17 06:00N 49°17' W 123°04'0 0.0
2017-May-17 05:30N 49°17' W 123°04'0 0.0
2017-May-17 05:01N 49°17' W 123°04'0 0.0
2017-May-17 04:30N 49°17' W 123°04'0 0.0
2017-May-17 04:00N 49°17' W 123°04'0 0.0
2017-May-17 03:31N 49°17' W 123°04'0 0.0
2017-May-17 03:00N 49°17' W 123°04'0 0.0
2017-May-17 02:30N 49°17' W 123°04'0 0.0
2017-May-17 02:00N 49°17' W 123°04'1 2.2
2017-May-17 01:30N 49°18' W 123°02'0 0.0
2017-May-17 01:00N 49°18' W 123°02'0 0.6
2017-May-17 00:30N 49°18' W 123°02'1 1.7
2017-May-17 00:00N 49°18' W 123°03'0 0.4
2017-May-16 23:31N 49°18' W 123°04'1 1.0
2017-May-16 23:01N 49°18' W 123°04'1 2.4
2017-May-16 22:30N 49°18' W 123°06'1 1.2
2017-May-16 22:00N 49°19' W 123°07'2 3.9
2017-May-16 21:31N 49°18' W 123°04'1 1.1
2017-May-16 21:00N 49°17' W 123°04'0 0.0
2017-May-16 20:30N 49°17' W 123°04'0 0.0
2017-May-16 20:00N 49°17' W 123°04'2 3.6
2017-May-16 19:30N 49°18' W 123°01'3 6.0
2017-May-16 19:00N 49°18' W 122°56'2 4.7
2017-May-16 18:30N 49°18' W 122°53'0 1.0
2017-May-16 18:00N 49°17' W 122°52'4 7.0
2017-May-16 17:30N 49°18' W 122°57'4 7.6
2017-May-16 17:00N 49°18' W 123°03'0 0.6
2017-May-16 16:31N 49°17' W 123°04'0 0.0
2017-May-16 16:01N 49°17' W 123°04'0 0.0
2017-May-16 15:30N 49°17' W 123°04'0 0.0
2017-May-16 15:00N 49°17' W 123°04'0 0.0
2017-May-16 14:31N 49°17' W 123°04'0 0.0
2017-May-16 13:30N 49°17' W 123°04'0 0.0
2017-May-16 13:01N 49°17' W 123°04'0 0.0
2017-May-16 12:31N 49°17' W 123°04'0 0.0
2017-May-16 12:00N 49°17' W 123°04'0 0.0
2017-May-16 11:30N 49°17' W 123°04'0 0.0
2017-May-16 11:00N 49°17' W 123°04'0 0.0
2017-May-16 10:30N 49°17' W 123°04'0 0.0
2017-May-16 10:00N 49°17' W 123°04'0 0.0
2017-May-16 09:30N 49°17' W 123°04'0 0.0
2017-May-16 09:01N 49°17' W 123°04'0 0.0
2017-May-16 08:30N 49°17' W 123°04'0 0.0
2017-May-16 08:01N 49°17' W 123°04'0 0.0
2017-May-16 07:30N 49°17' W 123°04'0 0.0
2017-May-16 07:01N 49°17' W 123°04'0 0.6
2017-May-16 06:31N 49°18' W 123°04'1 2.1
2017-May-16 06:00N 49°17' W 123°06'0 0.6
2017-May-16 05:30N 49°18' W 123°06'0 0.3
2017-May-16 05:01N 49°17' W 123°06'1 2.8
2017-May-16 04:30N 49°17' W 123°04'0 0.0
2017-May-16 04:00N 49°17' W 123°04'0 0.0
2017-May-16 03:30N 49°17' W 123°04'0 0.0
2017-May-16 03:00N 49°17' W 123°04'0 0.0
2017-May-16 02:30N 49°17' W 123°04'0 0.0
2017-May-16 02:00N 49°17' W 123°04'0 0.0
2017-May-16 01:30N 49°17' W 123°04'0 0.0
2017-May-16 01:00N 49°17' W 123°04'0 0.0
2017-May-16 00:31N 49°17' W 123°04'0 0.0
2017-May-16 00:01N 49°17' W 123°04'0 0.0
2017-May-15 23:30N 49°17' W 123°04'0 0.0
2017-May-15 23:01N 49°17' W 123°04'0 0.0
2017-May-15 22:31N 49°17' W 123°04'0 0.0
2017-May-15 22:00N 49°17' W 123°04'0 0.0
2017-May-15 21:30N 49°17' W 123°04'0 0.0
2017-May-15 21:01N 49°17' W 123°04'0 0.0
2017-May-15 20:30N 49°17' W 123°04'0 0.0
2017-May-15 20:01N 49°17' W 123°04'0 0.0
2017-May-15 19:30N 49°17' W 123°04'0 0.0
2017-May-15 19:00N 49°17' W 123°04'0 0.0
2017-May-15 18:30N 49°17' W 123°04'0 0.0
2017-May-15 18:00N 49°17' W 123°04'0 0.0
2017-May-15 17:30N 49°17' W 123°04'0 0.0
2017-May-15 17:00N 49°17' W 123°04'0 0.0
2017-May-15 16:31N 49°17' W 123°04'0 0.0
2017-May-15 16:01N 49°17' W 123°04'0 0.0
2017-May-15 15:31N 49°17' W 123°04'0 0.0
2017-May-15 15:00N 49°17' W 123°04'0 0.0
2017-May-15 14:00N 49°17' W 123°04'0 0.0
2017-May-15 13:30N 49°17' W 123°04'0 0.0
2017-May-15 13:00N 49°17' W 123°04'0 0.0
2017-May-15 12:30N 49°17' W 123°04'0 0.0
2017-May-15 12:00N 49°17' W 123°04'0 0.0
2017-May-15 11:30N 49°17' W 123°04'0 0.0
2017-May-15 11:00N 49°17' W 123°04'0 0.0
2017-May-15 10:30N 49°17' W 123°04'0 0.0
2017-May-15 10:00N 49°17' W 123°04'0 0.0
2017-May-15 09:30N 49°17' W 123°04'0 0.0
2017-May-15 09:00N 49°17' W 123°04'0 0.0
2017-May-15 08:31N 49°17' W 123°04'0 0.7
2017-May-15 08:00N 49°18' W 123°04'0 1.0
2017-May-15 07:30N 49°18' W 123°04'0 0.9
2017-May-15 07:00N 49°18' W 123°05'1 1.6
2017-May-15 06:30N 49°17' W 123°04'0 0.0
2017-May-15 06:00N 49°17' W 123°04'0 0.0
2017-May-15 05:30N 49°17' W 123°04'0 0.0
2017-May-15 05:00N 49°17' W 123°04'0 0.0
2017-May-15 04:30N 49°17' W 123°04'0 0.0
2017-May-15 04:01N 49°17' W 123°04'0 0.0
2017-May-15 03:30N 49°17' W 123°04'0 0.0
2017-May-15 03:01N 49°17' W 123°04'0 0.0
2017-May-15 02:30N 49°17' W 123°04'0 0.0
2017-May-15 02:01N 49°17' W 123°04'0 0.0
2017-May-15 01:30N 49°17' W 123°04'0 0.0
2017-May-15 01:00N 49°17' W 123°04'0 0.0
2017-May-15 00:30N 49°17' W 123°04'0 0.0
2017-May-15 00:00N 49°17' W 123°04'0 0.0
2017-May-14 23:30N 49°17' W 123°04'0 0.0
2017-May-14 23:01N 49°17' W 123°04'0 0.0
2017-May-14 22:31N 49°17' W 123°04'0 0.0
2017-May-14 22:00N 49°17' W 123°04'0 0.0
2017-May-14 21:30N 49°17' W 123°04'0 0.0
2017-May-14 21:00N 49°17' W 123°04'0 0.0
2017-May-14 20:30N 49°17' W 123°04'0 0.0
2017-May-14 20:00N 49°17' W 123°04'0 0.0
2017-May-14 19:30N 49°17' W 123°04'0 0.0
2017-May-14 19:00N 49°17' W 123°04'0 0.0
2017-May-14 18:31N 49°17' W 123°04'0 0.0
2017-May-14 18:01N 49°17' W 123°04'0 0.0
2017-May-14 17:30N 49°17' W 123°04'0 0.0
2017-May-14 17:01N 49°17' W 123°04'0 0.0
2017-May-14 16:30N 49°17' W 123°04'0 0.0
2017-May-14 16:00N 49°17' W 123°04'0 0.0
2017-May-14 15:30N 49°17' W 123°04'0 0.0
2017-May-14 15:00N 49°17' W 123°04'0 0.0
2017-May-14 14:30N 49°17' W 123°04'1 1.4
2017-May-14 13:31N 49°17' W 123°06'1 1.7
2017-May-14 13:00N 49°18' W 123°06'1 1.4
2017-May-14 12:31N 49°19' W 123°07'3 5.2
2017-May-14 12:01N 49°17' W 123°04'0 0.0
2017-May-14 11:30N 49°17' W 123°04'0 0.0
2017-May-14 11:00N 49°17' W 123°04'0 0.0
2017-May-14 10:31N 49°17' W 123°04'0 0.0
2017-May-14 10:00N 49°17' W 123°04'0 0.0
2017-May-14 09:31N 49°17' W 123°04'0 0.0
2017-May-14 09:00N 49°17' W 123°04'0 0.0
2017-May-14 08:30N 49°17' W 123°04'0 0.0
2017-May-14 08:00N 49°17' W 123°04'0 0.0
2017-May-14 07:30N 49°17' W 123°04'0 0.0
2017-May-14 07:01N 49°17' W 123°04'0 0.0
2017-May-14 06:30N 49°17' W 123°04'0 0.0
2017-May-14 06:01N 49°17' W 123°04'0 0.0
2017-May-14 05:30N 49°17' W 123°04'0 0.0
2017-May-14 05:01N 49°17' W 123°04'0 0.0
2017-May-14 04:30N 49°17' W 123°04'0 0.0
2017-May-14 04:00N 49°17' W 123°04'0 0.0
2017-May-14 03:30N 49°17' W 123°04'0 0.0
2017-May-14 03:00N 49°17' W 123°04'0 0.0
2017-May-14 02:30N 49°17' W 123°04'0 0.0
2017-May-14 02:00N 49°17' W 123°04'0 0.0
2017-May-14 01:30N 49°17' W 123°04'0 0.0
2017-May-14 01:00N 49°17' W 123°04'0 0.0
2017-May-14 00:31N 49°17' W 123°04'0 0.0
2017-May-14 00:00N 49°17' W 123°04'0 0.0
2017-May-13 23:30N 49°17' W 123°04'1 2.2
2017-May-13 23:00N 49°18' W 123°02'0 0.0
2017-May-13 22:30N 49°18' W 123°02'0 0.5
2017-May-13 22:01N 49°18' W 123°02'0 0.2
2017-May-13 21:30N 49°18' W 123°02'0 0.3
2017-May-13 21:00N 49°18' W 123°02'1 1.8
2017-May-13 20:30N 49°18' W 123°04'0 0.2
2017-May-13 20:00N 49°17' W 123°04'0 0.0
2017-May-13 19:30N 49°17' W 123°04'1 1.0
2017-May-13 19:00N 49°18' W 123°04'0 0.7
2017-May-13 18:31N 49°17' W 123°05'1 1.2
2017-May-13 18:00N 49°17' W 123°04'0 0.0
2017-May-13 17:30N 49°17' W 123°04'0 0.0
2017-May-13 17:00N 49°17' W 123°04'  
Track history (hours):
 
Tides and Currents Weather Stations Pressure Air Temp Water Temp Dewpoint Dewpoint Depression Visibility Wind Speed Wind Dir Waves Ship Positions

Sst Orleans

Last reported at 2017-May-23 17:00 UTC. Time now 2017-May-23 17:06 UTC.
Position N 49°17' W 123°04'.

Length 29 m; draft 5.1 m.

Type: . MMSI: 316012721.

Date/timePositionNaut miles runAvg speedWind from/ knotsBaromVisibWave heightAir tempDewpointWater temp
2017-May-23 17:00N 49°17' W 123°04'0 0.0
2017-May-23 16:30N 49°17' W 123°04'0 0.0
2017-May-23 16:00N 49°17' W 123°04'0 0.0
2017-May-23 15:30N 49°17' W 123°04'0 0.0
2017-May-23 15:00N 49°17' W 123°04'0 0.0
2017-May-23 14:30N 49°17' W 123°04'0 0.0
2017-May-23 13:30N 49°17' W 123°04'0 0.0
2017-May-23 13:00N 49°17' W 123°04'0 0.0
2017-May-23 12:30N 49°17' W 123°04'0 0.0
2017-May-23 12:00N 49°17' W 123°04'0 0.0
2017-May-23 11:30N 49°17' W 123°04'0 0.0
2017-May-23 11:00N 49°17' W 123°04'0 0.0
2017-May-23 10:30N 49°17' W 123°04'0 0.0
2017-May-23 10:00N 49°17' W 123°04'0 0.0
2017-May-23 09:30N 49°17' W 123°04'2 3.7
2017-May-23 09:01N 49°18' W 123°06'611.9
2017-May-23 08:30N 49°18' W 123°15'611.8
2017-May-23 08:00N 49°13' W 123°18'712.2
2017-May-23 07:28N 49°06' W 123°21'510.8
2017-May-23 07:00N 49°02' W 123°17'612.1
2017-May-23 06:30N 48°58' W 123°10'612.4
2017-May-23 05:59N 48°53' W 123°04'510.9
2017-May-23 05:30N 48°48' W 122°60'612.1
2017-May-23 05:01N 48°44' W 123°07'612.0
2017-May-23 04:30N 48°42' W 123°15'612.6
2017-May-23 04:00N 48°35' W 123°13'611.3
2017-May-23 03:30N 48°30' W 123°11'510.7
2017-May-23 03:00N 48°24' W 123°11'612.0
2017-May-23 02:30N 48°22' W 123°20'611.6
2017-May-23 02:00N 48°19' W 123°27'4 8.6
2017-May-23 01:30N 48°23' W 123°24'510.2
2017-May-23 01:01N 48°24' W 123°16'4 8.7
2017-May-23 00:31N 48°27' W 123°12'510.6
2017-May-23 00:01N 48°32' W 123°13'510.5
2017-May-22 23:30N 48°37' W 123°14'510.0
2017-May-22 23:00N 48°43' W 123°14'510.8
2017-May-22 22:30N 48°45' W 123°07'610.5
2017-May-22 21:59N 48°48' W 123°00'4 9.0
2017-May-22 21:29N 48°51' W 123°05'713.7
2017-May-22 21:00N 48°56' W 123°12'713.1
2017-May-22 20:29N 49°01' W 123°19'612.0
2017-May-22 19:59N 49°06' W 123°23'612.3
2017-May-22 19:30N 49°12' W 123°22'612.4
2017-May-22 19:00N 49°18' W 123°18'5 9.8
2017-May-22 18:30N 49°19' W 123°11'3 6.5
2017-May-22 18:01N 49°18' W 123°06'3 6.2
2017-May-22 17:30N 49°18' W 123°01'2 4.7
2017-May-22 17:00N 49°18' W 122°58'2 4.2
2017-May-22 16:30N 49°18' W 122°54'0 0.6
2017-May-22 16:00N 49°17' W 122°54'4 9.0
2017-May-22 15:30N 49°18' W 123°01'2 3.8
2017-May-22 15:00N 49°17' W 123°04'0 0.0
2017-May-22 14:01N 49°17' W 123°04'0 0.0
2017-May-22 13:31N 49°17' W 123°04'0 0.0
2017-May-22 13:00N 49°17' W 123°04'0 0.0
2017-May-22 12:30N 49°17' W 123°04'0 0.0
2017-May-22 12:01N 49°17' W 123°04'0 0.0
2017-May-22 11:31N 49°17' W 123°04'0 0.0
2017-May-22 11:00N 49°17' W 123°04'0 0.0
2017-May-22 10:30N 49°17' W 123°04'0 0.0
2017-May-22 10:00N 49°17' W 123°04'0 0.0
2017-May-22 09:30N 49°17' W 123°04'0 0.0
2017-May-22 09:01N 49°17' W 123°04'0 0.0
2017-May-22 08:31N 49°17' W 123°04'0 0.0
2017-May-22 08:01N 49°17' W 123°04'0 0.0
2017-May-22 07:31N 49°17' W 123°04'0 0.0
2017-May-22 07:00N 49°17' W 123°04'0 0.0
2017-May-22 06:30N 49°17' W 123°04'0 0.0
2017-May-22 06:00N 49°17' W 123°04'0 0.0
2017-May-22 05:30N 49°17' W 123°04'0 0.0
2017-May-22 05:01N 49°17' W 123°04'0 0.0
2017-May-22 04:31N 49°17' W 123°04'0 0.0
2017-May-22 04:01N 49°17' W 123°04'0 0.0
2017-May-22 03:31N 49°17' W 123°04'0 0.0
2017-May-22 03:00N 49°17' W 123°04'0 0.0
2017-May-22 02:31N 49°17' W 123°04'0 0.0
2017-May-22 02:00N 49°17' W 123°04'0 0.0
2017-May-22 01:31N 49°17' W 123°04'0 0.0
2017-May-22 01:00N 49°17' W 123°04'0 0.0
2017-May-22 00:30N 49°17' W 123°04'0 0.0
2017-May-22 00:00N 49°17' W 123°04'0 0.0
2017-May-21 23:31N 49°17' W 123°04'0 0.0
2017-May-21 23:00N 49°17' W 123°04'0 0.0
2017-May-21 22:30N 49°17' W 123°04'0 0.0
2017-May-21 22:00N 49°17' W 123°04'0 0.0
2017-May-21 21:31N 49°17' W 123°04'0 0.0
2017-May-21 21:01N 49°17' W 123°04'0 0.0
2017-May-21 20:30N 49°17' W 123°04'0 0.0
2017-May-21 20:00N 49°17' W 123°04'0 0.0
2017-May-21 19:31N 49°17' W 123°04'0 0.0
2017-May-21 19:01N 49°17' W 123°04'0 0.0
2017-May-21 18:30N 49°17' W 123°04'0 0.0
2017-May-21 18:00N 49°17' W 123°04'0 0.0
2017-May-21 17:30N 49°17' W 123°04'0 0.0
2017-May-21 17:00N 49°17' W 123°04'0 0.0
2017-May-21 16:31N 49°17' W 123°04'0 0.0
2017-May-21 16:01N 49°17' W 123°04'0 0.0
2017-May-21 15:31N 49°17' W 123°04'0 0.0
2017-May-21 15:00N 49°17' W 123°04'0 0.0
2017-May-21 14:31N 49°17' W 123°04'0 0.0
2017-May-21 13:30N 49°17' W 123°04'0 0.0
2017-May-21 13:00N 49°17' W 123°04'0 0.0
2017-May-21 12:30N 49°17' W 123°04'0 0.0
2017-May-21 12:00N 49°17' W 123°04'0 0.0
2017-May-21 11:30N 49°17' W 123°04'0 0.0
2017-May-21 11:01N 49°17' W 123°04'0 0.0
2017-May-21 10:30N 49°17' W 123°04'0 0.0
2017-May-21 10:00N 49°17' W 123°04'0 0.0
2017-May-21 09:31N 49°17' W 123°04'0 0.0
2017-May-21 09:00N 49°17' W 123°04'0 0.0
2017-May-21 08:31N 49°17' W 123°04'0 0.0
2017-May-21 08:00N 49°17' W 123°04'0 0.0
2017-May-21 07:31N 49°17' W 123°04'0 0.0
2017-May-21 07:01N 49°17' W 123°04'0 0.0
2017-May-21 06:31N 49°17' W 123°04'0 0.0
2017-May-21 06:00N 49°17' W 123°04'0 0.0
2017-May-21 05:31N 49°17' W 123°04'0 0.0
2017-May-21 05:00N 49°17' W 123°04'1 1.5
2017-May-21 04:31N 49°18' W 123°03'0 0.2
2017-May-21 04:01N 49°18' W 123°03'0 0.0
2017-May-21 03:30N 49°18' W 123°03'0 0.0
2017-May-21 03:00N 49°18' W 123°03'1 1.7
2017-May-21 02:30N 49°17' W 123°04'0 0.0
2017-May-21 02:00N 49°17' W 123°04'0 0.0
2017-May-21 01:30N 49°17' W 123°04'0 0.0
2017-May-21 01:00N 49°17' W 123°04'0 0.0
2017-May-21 00:30N 49°17' W 123°04'0 0.0
2017-May-21 00:01N 49°17' W 123°04'2 3.1
2017-May-20 23:31N 49°18' W 123°06'1 2.5
2017-May-20 23:00N 49°19' W 123°08'3 5.6
2017-May-20 22:30N 49°17' W 123°04'0 0.0
2017-May-20 22:00N 49°17' W 123°04'0 0.0
2017-May-20 21:30N 49°17' W 123°04'1 2.8
2017-May-20 21:01N 49°17' W 123°06'0 0.4
2017-May-20 20:31N 49°18' W 123°06'1 1.1
2017-May-20 20:01N 49°18' W 123°06'2 3.1
2017-May-20 19:31N 49°17' W 123°04'0 0.0
2017-May-20 19:00N 49°17' W 123°04'0 0.0
2017-May-20 18:30N 49°17' W 123°04'0 0.0
2017-May-20 18:01N 49°17' W 123°04'0 0.0
2017-May-20 17:31N 49°17' W 123°04'0 0.0
2017-May-20 17:01N 49°17' W 123°04'0 0.0
2017-May-20 16:31N 49°17' W 123°04'0 0.0
2017-May-20 16:00N 49°17' W 123°04'0 0.0
2017-May-20 15:30N 49°17' W 123°04'4 8.1
2017-May-20 15:00N 49°18' W 122°57'2 4.7
2017-May-20 14:31N 49°17' W 122°54'0 0.4
2017-May-20 13:30N 49°17' W 122°55'2 3.0
2017-May-20 13:00N 49°18' W 122°57'2 3.1
2017-May-20 12:30N 49°18' W 122°59'3 5.9
2017-May-20 12:01N 49°17' W 123°04'0 0.0
2017-May-20 11:30N 49°17' W 123°04'0 0.0
2017-May-20 11:00N 49°17' W 123°04'0 0.0
2017-May-20 10:31N 49°17' W 123°04'0 0.0
2017-May-20 10:00N 49°17' W 123°04'0 0.0
2017-May-20 09:31N 49°17' W 123°04'0 0.0
2017-May-20 09:00N 49°17' W 123°04'0 0.0
2017-May-20 08:30N 49°17' W 123°04'0 0.0
2017-May-20 08:01N 49°17' W 123°04'0 0.0
2017-May-20 07:31N 49°17' W 123°04'0 0.0
2017-May-20 07:00N 49°17' W 123°04'0 0.0
2017-May-20 06:31N 49°17' W 123°04'0 0.0
2017-May-20 06:01N 49°17' W 123°04'0 0.0
2017-May-20 05:30N 49°17' W 123°04'0 0.0
2017-May-20 05:01N 49°17' W 123°04'0 0.0
2017-May-20 04:31N 49°17' W 123°04'0 0.0
2017-May-20 04:00N 49°17' W 123°04'0 0.0
2017-May-20 03:31N 49°17' W 123°04'0 0.0
2017-May-20 03:00N 49°17' W 123°04'0 0.0
2017-May-20 02:31N 49°17' W 123°04'0 0.0
2017-May-20 02:01N 49°17' W 123°04'0 0.0
2017-May-20 01:30N 49°17' W 123°04'0 0.0
2017-May-20 01:00N 49°17' W 123°04'0 0.0
2017-May-20 00:31N 49°17' W 123°04'0 0.0
2017-May-20 00:00N 49°17' W 123°04'0 0.0
2017-May-19 23:31N 49°17' W 123°04'0 0.0
2017-May-19 23:00N 49°17' W 123°04'0 0.0
2017-May-19 22:30N 49°17' W 123°04'0 0.0
2017-May-19 22:01N 49°17' W 123°04'0 0.0
2017-May-19 21:30N 49°17' W 123°04'0 0.0
2017-May-19 21:00N 49°17' W 123°04'0 0.0
2017-May-19 20:30N 49°17' W 123°04'0 0.0
2017-May-19 20:00N 49°17' W 123°04'0 0.0
2017-May-19 19:31N 49°17' W 123°04'0 0.0
2017-May-19 19:01N 49°17' W 123°04'0 0.0
2017-May-19 18:31N 49°17' W 123°04'0 0.0
2017-May-19 18:01N 49°17' W 123°04'0 0.0
2017-May-19 17:30N 49°17' W 123°04'1 1.7
2017-May-19 17:00N 49°18' W 123°04'0 0.2
2017-May-19 16:30N 49°18' W 123°04'1 1.1
2017-May-19 16:01N 49°18' W 123°05'0 0.3
2017-May-19 15:30N 49°18' W 123°05'0 0.9
2017-May-19 15:00N 49°18' W 123°06'2 1.5
2017-May-19 14:01N 49°17' W 123°04'0 0.0
2017-May-19 13:30N 49°17' W 123°04'0 0.0
2017-May-19 13:01N 49°17' W 123°04'0 0.0
2017-May-19 12:30N 49°17' W 123°04'0 0.0
2017-May-19 12:01N 49°17' W 123°04'0 0.0
2017-May-19 11:30N 49°17' W 123°04'0 0.0
2017-May-19 11:00N 49°17' W 123°04'0 0.0
2017-May-19 10:31N 49°17' W 123°04'0 0.0
2017-May-19 10:01N 49°17' W 123°04'0 0.0
2017-May-19 09:30N 49°17' W 123°04'0 0.0
2017-May-19 09:01N 49°17' W 123°04'0 0.0
2017-May-19 08:31N 49°17' W 123°04'0 0.0
2017-May-19 08:01N 49°17' W 123°04'0 0.0
2017-May-19 07:31N 49°17' W 123°04'0 0.0
2017-May-19 07:00N 49°17' W 123°04'0 0.0
2017-May-19 06:31N 49°17' W 123°04'1 1.6
2017-May-19 06:00N 49°18' W 123°04'1 1.6
2017-May-19 05:31N 49°17' W 123°04'0 0.0
2017-May-19 05:00N 49°17' W 123°04'0 0.0
2017-May-19 04:31N 49°17' W 123°04'0 0.0
2017-May-19 04:01N 49°17' W 123°04'0 0.0
2017-May-19 03:31N 49°17' W 123°04'0 0.0
2017-May-19 03:01N 49°17' W 123°04'0 0.0
2017-May-19 02:30N 49°17' W 123°04'0 0.0
2017-May-19 02:00N 49°17' W 123°04'0 0.0
2017-May-19 01:30N 49°17' W 123°04'0 0.0
2017-May-19 01:00N 49°17' W 123°04'0 0.0
2017-May-19 00:30N 49°17' W 123°04'2 4.3
2017-May-19 00:01N 49°18' W 123°07'0 0.0
2017-May-18 23:30N 49°18' W 123°07'1 1.3
2017-May-18 23:00N 49°19' W 123°08'0 0.0
2017-May-18 22:30N 49°19' W 123°08'1 1.3
2017-May-18 22:01N 49°18' W 123°06'2 4.2
2017-May-18 21:30N 49°17' W 123°04'0 0.0
2017-May-18 21:00N 49°17' W 123°04'0 0.0
2017-May-18 20:30N 49°17' W 123°04'0 0.0
2017-May-18 20:01N 49°17' W 123°04'0 0.0
2017-May-18 19:30N 49°17' W 123°04'0 0.0
2017-May-18 19:01N 49°17' W 123°04'0 0.0
2017-May-18 18:30N 49°17' W 123°04'0 0.0
2017-May-18 18:01N 49°17' W 123°04'0 0.0
2017-May-18 17:30N 49°17' W 123°04'0 0.0
2017-May-18 17:00N 49°17' W 123°04'0 0.0
2017-May-18 16:30N 49°17' W 123°04'0 0.0
2017-May-18 16:01N 49°17' W 123°04'0 0.0
2017-May-18 15:30N 49°17' W 123°04'0 0.0
2017-May-18 15:01N 49°17' W 123°04'0 0.0
2017-May-18 14:30N 49°17' W 123°04'0 0.0
2017-May-18 13:31N 49°17' W 123°04'2 4.9
2017-May-18 13:00N 49°19' W 123°07'0 0.1
2017-May-18 12:30N 49°19' W 123°07'1 1.9
2017-May-18 12:00N 49°19' W 123°08'3 7.1
2017-May-18 11:31N 49°17' W 123°04'0 0.0
2017-May-18 11:00N 49°17' W 123°04'0 0.0
2017-May-18 10:31N 49°17' W 123°04'0 0.0
2017-May-18 10:00N 49°17' W 123°04'0 0.0
2017-May-18 09:30N 49°17' W 123°04'0 0.0
2017-May-18 09:00N 49°17' W 123°04'0 0.0
2017-May-18 08:31N 49°17' W 123°04'0 0.0
2017-May-18 08:00N 49°17' W 123°04'0 0.0
2017-May-18 07:31N 49°17' W 123°04'0 0.0
2017-May-18 07:00N 49°17' W 123°04'0 0.0
2017-May-18 06:31N 49°17' W 123°04'0 0.0
2017-May-18 06:00N 49°17' W 123°04'0 0.0
2017-May-18 05:31N 49°17' W 123°04'0 0.0
2017-May-18 05:00N 49°17' W 123°04'0 0.0
2017-May-18 04:31N 49°17' W 123°04'0 0.0
2017-May-18 04:01N 49°17' W 123°04'0 0.0
2017-May-18 03:30N 49°17' W 123°04'2 4.7
2017-May-18 03:00N 49°17' W 123°07'0 0.0
2017-May-18 02:31N 49°17' W 123°07'0 0.0
2017-May-18 02:00N 49°17' W 123°07'0 0.0
2017-May-18 01:30N 49°17' W 123°07'0 0.0
2017-May-18 01:00N 49°17' W 123°07'0 0.0
2017-May-18 00:31N 49°17' W 123°07'0 0.0
2017-May-18 00:01N 49°17' W 123°07'0 0.0
2017-May-17 23:31N 49°17' W 123°07'0 0.0
2017-May-17 23:01N 49°17' W 123°07'0 0.0
2017-May-17 22:31N 49°17' W 123°07'0 0.0
2017-May-17 22:00N 49°17' W 123°07'0 0.0
2017-May-17 21:30N 49°17' W 123°07'0 0.0
2017-May-17 21:00N 49°17' W 123°07'0 0.0
2017-May-17 20:31N 49°17' W 123°07'0 0.0
2017-May-17 20:00N 49°17' W 123°07'0 0.0
2017-May-17 19:30N 49°17' W 123°07'0 0.0
2017-May-17 19:00N 49°17' W 123°07'1 1.2
2017-May-17 18:31N 49°17' W 123°06'2 3.5
2017-May-17 18:00N 49°17' W 123°04'0 0.0
2017-May-17 17:31N 49°17' W 123°04'0 0.0
2017-May-17 17:00N 49°17' W 123°04'0 0.9
2017-May-17 16:30N 49°18' W 123°04'2 3.9
2017-May-17 16:00N 49°18' W 123°07'0 0.2
2017-May-17 15:30N 49°18' W 123°07'1 2.7
2017-May-17 15:00N 49°18' W 123°05'2 1.9
2017-May-17 14:01N 49°18' W 123°02'1 2.0
2017-May-17 13:30N 49°17' W 123°04'0 0.0
2017-May-17 13:00N 49°17' W 123°04'0 0.0
2017-May-17 12:30N 49°17' W 123°04'0 0.0
2017-May-17 12:00N 49°17' W 123°04'0 0.0
2017-May-17 11:30N 49°17' W 123°04'0 0.0
2017-May-17 11:00N 49°17' W 123°04'0 0.0
2017-May-17 10:30N 49°17' W 123°04'0 0.0
2017-May-17 10:00N 49°17' W 123°04'0 0.0
2017-May-17 09:30N 49°17' W 123°04'0 0.0
2017-May-17 09:00N 49°17' W 123°04'0 0.0
2017-May-17 08:30N 49°17' W 123°04'0 0.0
2017-May-17 08:01N 49°17' W 123°04'0 0.0
2017-May-17 07:30N 49°17' W 123°04'0 0.0
2017-May-17 07:00N 49°17' W 123°04'0 0.0
2017-May-17 06:30N 49°17' W 123°04'0 0.0
2017-May-17 06:00N 49°17' W 123°04'0 0.0
2017-May-17 05:30N 49°17' W 123°04'0 0.0
2017-May-17 05:01N 49°17' W 123°04'0 0.0
2017-May-17 04:30N 49°17' W 123°04'0 0.0
2017-May-17 04:00N 49°17' W 123°04'0 0.0
2017-May-17 03:31N 49°17' W 123°04'0 0.0
2017-May-17 03:00N 49°17' W 123°04'0 0.0
2017-May-17 02:30N 49°17' W 123°04'0 0.0
2017-May-17 02:00N 49°17' W 123°04'1 2.2
2017-May-17 01:30N 49°18' W 123°02'0 0.0
2017-May-17 01:00N 49°18' W 123°02'0 0.6
2017-May-17 00:30N 49°18' W 123°02'1 1.7
2017-May-17 00:00N 49°18' W 123°03'0 0.4
2017-May-16 23:31N 49°18' W 123°04'1 1.0
2017-May-16 23:01N 49°18' W 123°04'1 2.4
2017-May-16 22:30N 49°18' W 123°06'1 1.2
2017-May-16 22:00N 49°19' W 123°07'2 3.9
2017-May-16 21:31N 49°18' W 123°04'1 1.1
2017-May-16 21:00N 49°17' W 123°04'0 0.0
2017-May-16 20:30N 49°17' W 123°04'0 0.0
2017-May-16 20:00N 49°17' W 123°04'2 3.6
2017-May-16 19:30N 49°18' W 123°01'3 6.0
2017-May-16 19:00N 49°18' W 122°56'2 4.7
2017-May-16 18:30N 49°18' W 122°53'0 1.0
2017-May-16 18:00N 49°17' W 122°52'4 7.0
2017-May-16 17:30N 49°18' W 122°57'4 7.6
2017-May-16 17:00N 49°18' W 123°03'0 0.6
2017-May-16 16:31N 49°17' W 123°04'0 0.0
2017-May-16 16:01N 49°17' W 123°04'0 0.0
2017-May-16 15:30N 49°17' W 123°04'0 0.0
2017-May-16 15:00N 49°17' W 123°04'0 0.0
2017-May-16 14:31N 49°17' W 123°04'0 0.0
2017-May-16 13:30N 49°17' W 123°04'0 0.0
2017-May-16 13:01N 49°17' W 123°04'0 0.0
2017-May-16 12:31N 49°17' W 123°04'0 0.0
2017-May-16 12:00N 49°17' W 123°04'0 0.0
2017-May-16 11:30N 49°17' W 123°04'0 0.0
2017-May-16 11:00N 49°17' W 123°04'0 0.0
2017-May-16 10:30N 49°17' W 123°04'0 0.0
2017-May-16 10:00N 49°17' W 123°04'0 0.0
2017-May-16 09:30N 49°17' W 123°04'0 0.0
2017-May-16 09:01N 49°17' W 123°04'0 0.0
2017-May-16 08:30N 49°17' W 123°04'0 0.0
2017-May-16 08:01N 49°17' W 123°04'0 0.0
2017-May-16 07:30N 49°17' W 123°04'0 0.0
2017-May-16 07:01N 49°17' W 123°04'0 0.6
2017-May-16 06:31N 49°18' W 123°04'1 2.1
2017-May-16 06:00N 49°17' W 123°06'0 0.6
2017-May-16 05:30N 49°18' W 123°06'0 0.3
2017-May-16 05:01N 49°17' W 123°06'1 2.8
2017-May-16 04:30N 49°17' W 123°04'0 0.0
2017-May-16 04:00N 49°17' W 123°04'0 0.0
2017-May-16 03:30N 49°17' W 123°04'0 0.0
2017-May-16 03:00N 49°17' W 123°04'0 0.0
2017-May-16 02:30N 49°17' W 123°04'0 0.0
2017-May-16 02:00N 49°17' W 123°04'0 0.0
2017-May-16 01:30N 49°17' W 123°04'0 0.0
2017-May-16 01:00N 49°17' W 123°04'0 0.0
2017-May-16 00:31N 49°17' W 123°04'0 0.0
2017-May-16 00:01N 49°17' W 123°04'0 0.0
2017-May-15 23:30N 49°17' W 123°04'0 0.0
2017-May-15 23:01N 49°17' W 123°04'0 0.0
2017-May-15 22:31N 49°17' W 123°04'0 0.0
2017-May-15 22:00N 49°17' W 123°04'0 0.0
2017-May-15 21:30N 49°17' W 123°04'0 0.0
2017-May-15 21:01N 49°17' W 123°04'0 0.0
2017-May-15 20:30N 49°17' W 123°04'0 0.0
2017-May-15 20:01N 49°17' W 123°04'0 0.0
2017-May-15 19:30N 49°17' W 123°04'0 0.0
2017-May-15 19:00N 49°17' W 123°04'0 0.0
2017-May-15 18:30N 49°17' W 123°04'0 0.0
2017-May-15 18:00N 49°17' W 123°04'0 0.0
2017-May-15 17:30N 49°17' W 123°04'0 0.0
2017-May-15 17:00N 49°17' W 123°04'0 0.0
2017-May-15 16:31N 49°17' W 123°04'0 0.0
2017-May-15 16:01N 49°17' W 123°04'0 0.0
2017-May-15 15:31N 49°17' W 123°04'0 0.0
2017-May-15 15:00N 49°17' W 123°04'0 0.0
2017-May-15 14:00N 49°17' W 123°04'0 0.0
2017-May-15 13:30N 49°17' W 123°04'0 0.0
2017-May-15 13:00N 49°17' W 123°04'0 0.0
2017-May-15 12:30N 49°17' W 123°04'0 0.0
2017-May-15 12:00N 49°17' W 123°04'0 0.0
2017-May-15 11:30N 49°17' W 123°04'0 0.0
2017-May-15 11:00N 49°17' W 123°04'0 0.0
2017-May-15 10:30N 49°17' W 123°04'0 0.0
2017-May-15 10:00N 49°17' W 123°04'0 0.0
2017-May-15 09:30N 49°17' W 123°04'0 0.0
2017-May-15 09:00N 49°17' W 123°04'0 0.0
2017-May-15 08:31N 49°17' W 123°04'0 0.7
2017-May-15 08:00N 49°18' W 123°04'0 1.0
2017-May-15 07:30N 49°18' W 123°04'0 0.9
2017-May-15 07:00N 49°18' W 123°05'1 1.6
2017-May-15 06:30N 49°17' W 123°04'0 0.0
2017-May-15 06:00N 49°17' W 123°04'0 0.0
2017-May-15 05:30N 49°17' W 123°04'0 0.0
2017-May-15 05:00N 49°17' W 123°04'0 0.0
2017-May-15 04:30N 49°17' W 123°04'0 0.0
2017-May-15 04:01N 49°17' W 123°04'0 0.0
2017-May-15 03:30N 49°17' W 123°04'0 0.0
2017-May-15 03:01N 49°17' W 123°04'0 0.0
2017-May-15 02:30N 49°17' W 123°04'0 0.0
2017-May-15 02:01N 49°17' W 123°04'0 0.0
2017-May-15 01:30N 49°17' W 123°04'0 0.0
2017-May-15 01:00N 49°17' W 123°04'0 0.0
2017-May-15 00:30N 49°17' W 123°04'0 0.0
2017-May-15 00:00N 49°17' W 123°04'0 0.0
2017-May-14 23:30N 49°17' W 123°04'0 0.0
2017-May-14 23:01N 49°17' W 123°04'0 0.0
2017-May-14 22:31N 49°17' W 123°04'0 0.0
2017-May-14 22:00N 49°17' W 123°04'0 0.0
2017-May-14 21:30N 49°17' W 123°04'0 0.0
2017-May-14 21:00N 49°17' W 123°04'0 0.0
2017-May-14 20:30N 49°17' W 123°04'0 0.0
2017-May-14 20:00N 49°17' W 123°04'0 0.0
2017-May-14 19:30N 49°17' W 123°04'0 0.0
2017-May-14 19:00N 49°17' W 123°04'0 0.0
2017-May-14 18:31N 49°17' W 123°04'0 0.0
2017-May-14 18:01N 49°17' W 123°04'0 0.0
2017-May-14 17:30N 49°17' W 123°04'0 0.0
2017-May-14 17:01N 49°17' W 123°04'0 0.0
2017-May-14 16:30N 49°17' W 123°04'0 0.0
2017-May-14 16:00N 49°17' W 123°04'0 0.0
2017-May-14 15:30N 49°17' W 123°04'0 0.0
2017-May-14 15:00N 49°17' W 123°04'0 0.0
2017-May-14 14:30N 49°17' W 123°04'1 1.4
2017-May-14 13:31N 49°17' W 123°06'1 1.7
2017-May-14 13:00N 49°18' W 123°06'1 1.4
2017-May-14 12:31N 49°19' W 123°07'3 5.2
2017-May-14 12:01N 49°17' W 123°04'0 0.0
2017-May-14 11:30N 49°17' W 123°04'0 0.0
2017-May-14 11:00N 49°17' W 123°04'0 0.0
2017-May-14 10:31N 49°17' W 123°04'0 0.0
2017-May-14 10:00N 49°17' W 123°04'0 0.0
2017-May-14 09:31N 49°17' W 123°04'0 0.0
2017-May-14 09:00N 49°17' W 123°04'0 0.0
2017-May-14 08:30N 49°17' W 123°04'0 0.0
2017-May-14 08:00N 49°17' W 123°04'0 0.0
2017-May-14 07:30N 49°17' W 123°04'0 0.0
2017-May-14 07:01N 49°17' W 123°04'0 0.0
2017-May-14 06:30N 49°17' W 123°04'0 0.0
2017-May-14 06:01N 49°17' W 123°04'0 0.0
2017-May-14 05:30N 49°17' W 123°04'0 0.0
2017-May-14 05:01N 49°17' W 123°04'0 0.0
2017-May-14 04:30N 49°17' W 123°04'0 0.0
2017-May-14 04:00N 49°17' W 123°04'0 0.0
2017-May-14 03:30N 49°17' W 123°04'0 0.0
2017-May-14 03:00N 49°17' W 123°04'0 0.0
2017-May-14 02:30N 49°17' W 123°04'0 0.0
2017-May-14 02:00N 49°17' W 123°04'0 0.0
2017-May-14 01:30N 49°17' W 123°04'0 0.0
2017-May-14 01:00N 49°17' W 123°04'0 0.0
2017-May-14 00:31N 49°17' W 123°04'0 0.0
2017-May-14 00:00N 49°17' W 123°04'0 0.0
2017-May-13 23:30N 49°17' W 123°04'1 2.2
2017-May-13 23:00N 49°18' W 123°02'0 0.0
2017-May-13 22:30N 49°18' W 123°02'0 0.5
2017-May-13 22:01N 49°18' W 123°02'0 0.2
2017-May-13 21:30N 49°18' W 123°02'0 0.3
2017-May-13 21:00N 49°18' W 123°02'1 1.8
2017-May-13 20:30N 49°18' W 123°04'0 0.2
2017-May-13 20:00N 49°17' W 123°04'0 0.0
2017-May-13 19:30N 49°17' W 123°04'1 1.0
2017-May-13 19:00N 49°18' W 123°04'0 0.7
2017-May-13 18:31N 49°17' W 123°05'1 1.2
2017-May-13 18:00N 49°17' W 123°04'0 0.0
2017-May-13 17:30N 49°17' W 123°04'0 0.0
2017-May-13 17:00N 49°17' W 123°04'  

Dump ship's entire track history